createdAt,value
2023-12-21T00:02:08.194Z,72.07
2023-12-21T00:04:35.311Z,72.11
2023-12-21T00:07:02.457Z,72.16
2023-12-21T00:09:29.309Z,72.13
2023-12-21T00:11:57.323Z,72.17
2023-12-21T00:14:28.525Z,72.16
2023-12-21T00:16:55.500Z,72.35
2023-12-21T00:19:22.472Z,72.30
2023-12-21T00:21:49.665Z,72.37
2023-12-21T00:24:16.629Z,72.09
2023-12-21T00:26:43.755Z,71.81
2023-12-21T00:29:10.951Z,71.73
2023-12-21T00:31:37.981Z,71.94
2023-12-21T00:34:05.026Z,72.05
2023-12-21T00:36:31.955Z,72.21
2023-12-21T00:38:59.008Z,72.21
2023-12-21T00:41:26.121Z,72.32
2023-12-21T00:43:53.265Z,72.66
2023-12-21T00:46:20.063Z,72.75
2023-12-21T00:48:46.951Z,72.81
2023-12-21T00:51:13.835Z,72.97
2023-12-21T00:53:40.616Z,72.65
2023-12-21T00:56:08.962Z,72.57
2023-12-21T00:58:35.924Z,72.69
2023-12-21T01:01:03.640Z,72.64
2023-12-21T01:03:30.744Z,72.37
2023-12-21T01:05:57.642Z,72.51
2023-12-21T01:08:24.456Z,72.35
2023-12-21T01:10:51.366Z,72.18
2023-12-21T01:13:18.302Z,71.98
2023-12-21T01:15:45.194Z,71.54
2023-12-21T01:18:12.046Z,71.75
2023-12-21T01:20:38.862Z,71.83
2023-12-21T01:23:05.719Z,71.79
2023-12-21T01:25:32.630Z,71.87
2023-12-21T01:27:59.703Z,72.02
2023-12-21T01:30:27.069Z,71.95
2023-12-21T01:32:54.765Z,71.83
2023-12-21T01:35:21.891Z,71.78
2023-12-21T01:37:49.232Z,71.62
2023-12-21T01:40:16.966Z,71.63
2023-12-21T01:42:44.376Z,71.75
2023-12-21T01:45:11.820Z,71.76
2023-12-21T01:47:38.873Z,71.84
2023-12-21T01:50:06.434Z,71.89
2023-12-21T01:52:33.449Z,72.17
2023-12-21T01:55:00.414Z,72.22
2023-12-21T01:57:27.418Z,72.45
2023-12-21T01:59:54.384Z,72.28
2023-12-21T02:02:21.579Z,72.41
2023-12-21T02:04:48.669Z,72.33
2023-12-21T02:07:16.043Z,72.07
2023-12-21T02:09:43.002Z,72.03
2023-12-21T02:12:10.024Z,71.75
2023-12-21T02:14:37.712Z,72.05
2023-12-21T02:17:06.307Z,72.25
2023-12-21T02:19:33.162Z,72.06
2023-12-21T02:22:03.055Z,72.00
2023-12-21T02:24:30.572Z,71.46
2023-12-21T02:26:57.472Z,71.54
2023-12-21T02:29:24.409Z,71.33
2023-12-21T02:31:51.385Z,71.34
2023-12-21T02:34:18.428Z,71.34
2023-12-21T02:36:45.547Z,71.53
2023-12-21T02:39:12.607Z,71.45
2023-12-21T02:41:39.446Z,71.50
2023-12-21T02:44:06.328Z,71.50
2023-12-21T02:46:33.521Z,71.48
2023-12-21T02:49:00.749Z,71.30
2023-12-21T02:51:27.690Z,71.78
2023-12-21T02:53:54.753Z,72.51
2023-12-21T02:56:21.597Z,72.81
2023-12-21T02:58:48.457Z,72.82
2023-12-21T03:01:15.267Z,72.30
2023-12-21T03:03:42.228Z,72.03
2023-12-21T03:06:09.053Z,72.37
2023-12-21T03:08:35.841Z,72.18
2023-12-21T03:11:02.902Z,72.19
2023-12-21T03:13:29.773Z,71.83
2023-12-21T03:15:56.543Z,71.57
2023-12-21T03:18:23.325Z,71.85
2023-12-21T03:20:50.160Z,71.89
2023-12-21T03:23:16.910Z,72.24
2023-12-21T03:25:43.878Z,71.98
2023-12-21T03:28:11.722Z,72.26
2023-12-21T03:30:39.022Z,72.46
2023-12-21T03:33:06.799Z,72.78
2023-12-21T03:35:33.739Z,72.96
2023-12-21T03:38:00.881Z,73.29
2023-12-21T03:40:28.245Z,73.03
2023-12-21T03:42:55.249Z,73.24
2023-12-21T03:45:22.243Z,73.07
2023-12-21T03:47:51.835Z,72.85
2023-12-21T03:50:19.050Z,72.76
2023-12-21T03:52:46.143Z,72.97
2023-12-21T03:55:13.274Z,73.13
2023-12-21T03:57:41.166Z,73.26
2023-12-21T04:00:09.989Z,73.68
2023-12-21T04:02:38.160Z,73.59
2023-12-21T04:05:05.543Z,73.79
2023-12-21T04:07:32.438Z,73.73
2023-12-21T04:09:59.411Z,73.77
2023-12-21T04:12:26.468Z,73.84
2023-12-21T04:14:53.280Z,73.74
2023-12-21T04:17:20.096Z,73.58
2023-12-21T04:19:46.946Z,73.68
2023-12-21T04:22:13.792Z,73.60
2023-12-21T04:24:41.813Z,73.73
2023-12-21T04:27:08.603Z,73.69
2023-12-21T04:29:35.655Z,73.73
2023-12-21T04:32:02.550Z,73.86
2023-12-21T04:34:29.365Z,73.70
2023-12-21T04:36:56.377Z,73.46
2023-12-21T04:39:24.049Z,73.48
2023-12-21T04:41:51.241Z,73.59
2023-12-21T04:44:18.356Z,73.56
2023-12-21T04:46:50.364Z,73.68
2023-12-21T04:49:19.153Z,73.57
2023-12-21T04:51:47.625Z,73.36
2023-12-21T04:54:14.808Z,73.64
2023-12-21T04:56:45.102Z,73.58
2023-12-21T04:59:12.109Z,73.43
2023-12-21T05:01:39.067Z,73.44
2023-12-21T05:04:07.649Z,73.69
2023-12-21T05:06:34.705Z,73.79
2023-12-21T05:09:01.519Z,73.59
2023-12-21T05:11:28.995Z,73.69
2023-12-21T05:13:56.472Z,73.64
2023-12-21T05:16:25.927Z,73.67
2023-12-21T05:18:52.826Z,73.72
2023-12-21T05:21:19.789Z,73.70
2023-12-21T05:23:46.701Z,74.08
2023-12-21T05:26:14.190Z,74.22
2023-12-21T05:28:43.910Z,74.24
2023-12-21T05:31:11.668Z,74.68
2023-12-21T05:33:38.601Z,74.94
2023-12-21T05:36:05.725Z,74.87
2023-12-21T05:38:32.557Z,74.99
2023-12-21T05:40:59.444Z,74.88
2023-12-21T05:43:31.429Z,74.77
2023-12-21T05:45:58.512Z,74.69
2023-12-21T05:48:25.530Z,74.40
2023-12-21T05:50:52.828Z,74.30
2023-12-21T05:53:19.768Z,74.47
2023-12-21T05:55:46.779Z,74.45
2023-12-21T05:58:13.735Z,74.56
2023-12-21T06:00:40.836Z,74.40
2023-12-21T06:03:08.083Z,74.12
2023-12-21T06:05:34.994Z,74.44
2023-12-21T06:08:01.858Z,74.18
2023-12-21T06:10:28.828Z,73.57
2023-12-21T06:12:55.797Z,72.97
2023-12-21T06:15:23.031Z,72.15
2023-12-21T06:17:50.236Z,71.29
2023-12-21T06:20:17.323Z,70.10
2023-12-21T06:22:44.366Z,67.47
2023-12-21T06:25:12.788Z,66.27
2023-12-21T06:27:39.733Z,64.61
2023-12-21T06:30:07.357Z,62.11
2023-12-21T06:32:34.307Z,60.55
2023-12-21T06:35:01.337Z,58.26
2023-12-21T06:37:28.193Z,57.47
2023-12-21T06:39:56.001Z,54.23
2023-12-21T06:42:23.186Z,52.61
2023-12-21T06:44:50.023Z,51.58
2023-12-21T06:47:16.942Z,50.30
2023-12-21T06:49:43.761Z,49.18
2023-12-21T06:52:10.712Z,47.87
2023-12-21T06:54:37.723Z,47.84
2023-12-21T06:57:04.854Z,47.59
2023-12-21T06:59:31.758Z,46.97
2023-12-21T07:01:58.941Z,46.02
2023-12-21T07:04:25.935Z,45.55
2023-12-21T07:06:52.862Z,43.47
2023-12-21T07:09:20.974Z,43.55
2023-12-21T07:11:49.307Z,44.14
2023-12-21T07:14:16.708Z,43.87
2023-12-21T07:16:43.692Z,42.63
2023-12-21T07:19:10.614Z,42.50
2023-12-21T07:21:37.479Z,42.08
2023-12-21T07:24:04.575Z,40.58
2023-12-21T07:26:32.370Z,39.97
2023-12-21T07:28:59.191Z,39.10
2023-12-21T07:31:26.110Z,37.57
2023-12-21T07:33:53.061Z,36.73
2023-12-21T07:36:19.940Z,37.64
2023-12-21T07:38:46.917Z,38.42
2023-12-21T07:41:14.797Z,38.02
2023-12-21T07:43:42.917Z,37.51
2023-12-21T07:46:10.120Z,38.23
2023-12-21T07:48:37.156Z,36.76
2023-12-21T07:51:04.261Z,36.25
2023-12-21T07:53:31.108Z,34.89
2023-12-21T07:55:58.113Z,34.23
2023-12-21T07:58:24.975Z,34.07
2023-12-21T08:00:51.924Z,34.92
2023-12-21T08:03:22.472Z,35.10
2023-12-21T08:05:49.417Z,35.40
2023-12-21T08:08:16.306Z,35.75
2023-12-21T08:10:43.742Z,34.95
2023-12-21T08:13:10.973Z,35.29
2023-12-21T08:15:37.887Z,35.90
2023-12-21T08:18:06.029Z,36.17
2023-12-21T08:20:34.491Z,36.56
2023-12-21T08:23:04.582Z,35.67
2023-12-21T08:25:33.151Z,36.38
2023-12-21T08:28:00.218Z,35.01
2023-12-21T08:30:27.253Z,35.38
2023-12-21T08:32:54.207Z,34.73
2023-12-21T08:35:21.062Z,34.39
2023-12-21T08:37:48.041Z,33.78
2023-12-21T08:40:16.068Z,32.50
2023-12-21T08:42:43.070Z,30.96
2023-12-21T08:45:10.869Z,31.47
2023-12-21T08:47:42.781Z,32.16
2023-12-21T08:50:13.409Z,33.77
2023-12-21T08:52:40.910Z,32.38
2023-12-21T08:55:09.024Z,32.47
2023-12-21T08:57:39.201Z,33.13
2023-12-21T09:00:07.723Z,34.54
2023-12-21T09:02:36.040Z,33.82
2023-12-21T09:05:03.771Z,34.38
2023-12-21T09:07:31.092Z,33.02
2023-12-21T09:09:58.718Z,32.80
2023-12-21T09:12:25.626Z,31.25
2023-12-21T09:14:52.520Z,32.02
2023-12-21T09:17:19.865Z,32.03
2023-12-21T09:19:47.439Z,31.75
2023-12-21T09:22:14.246Z,33.00
2023-12-21T09:24:41.115Z,31.36
2023-12-21T09:27:07.964Z,30.81
2023-12-21T09:29:34.753Z,30.34
2023-12-21T09:32:01.665Z,31.60
2023-12-21T09:34:29.176Z,31.01
2023-12-21T09:36:56.108Z,29.38
2023-12-21T09:39:22.940Z,30.04
2023-12-21T09:42:00.024Z,31.14
2023-12-21T09:44:30.301Z,30.69
2023-12-21T09:46:57.477Z,29.78
2023-12-21T09:49:24.642Z,31.10
2023-12-21T09:51:51.711Z,31.33
2023-12-21T09:54:18.909Z,31.22
2023-12-21T09:56:47.071Z,31.61
2023-12-21T09:59:14.293Z,29.76
2023-12-21T10:01:43.024Z,31.86
2023-12-21T10:04:14.532Z,32.50
2023-12-21T10:06:41.474Z,31.27
2023-12-21T10:09:09.609Z,30.83
2023-12-21T10:11:36.686Z,30.85
2023-12-21T10:14:05.251Z,30.31
2023-12-21T10:16:32.417Z,30.31
2023-12-21T10:18:59.357Z,31.90
2023-12-21T10:21:26.282Z,31.08
2023-12-21T10:23:54.385Z,31.57
2023-12-21T10:26:21.175Z,32.42
2023-12-21T10:28:48.765Z,31.32
2023-12-21T10:31:17.816Z,30.61
2023-12-21T10:33:44.838Z,31.49
2023-12-21T10:36:11.877Z,31.48
2023-12-21T10:38:38.744Z,30.69
2023-12-21T10:41:07.291Z,32.23
2023-12-21T10:43:35.849Z,30.57
2023-12-21T10:46:04.081Z,31.21
2023-12-21T10:48:33.606Z,29.84
2023-12-21T10:51:00.478Z,31.41
2023-12-21T10:53:27.525Z,32.29
2023-12-21T10:55:55.385Z,31.50
2023-12-21T10:58:23.131Z,31.45
2023-12-21T11:00:50.939Z,31.16
2023-12-21T11:03:18.635Z,31.12
2023-12-21T11:05:46.317Z,30.05
2023-12-21T11:08:13.410Z,32.41
2023-12-21T11:10:40.418Z,30.45
2023-12-21T11:13:07.565Z,31.06
2023-12-21T11:15:34.473Z,31.39
2023-12-21T11:18:04.783Z,31.27
2023-12-21T11:20:42.218Z,31.82
2023-12-21T11:23:13.760Z,30.61
2023-12-21T11:25:40.830Z,30.60
2023-12-21T11:28:09.999Z,31.19
2023-12-21T11:30:37.238Z,30.96
2023-12-21T11:33:08.475Z,30.79
2023-12-21T11:35:35.584Z,30.89
2023-12-21T11:38:09.250Z,31.61
2023-12-21T11:40:36.681Z,31.17
2023-12-21T11:43:07.210Z,31.53
2023-12-21T11:45:35.404Z,31.23
2023-12-21T11:48:05.369Z,32.95
2023-12-21T11:50:35.228Z,32.69
2023-12-21T11:53:14.812Z,30.87
2023-12-21T11:55:44.786Z,31.46
2023-12-21T11:58:26.770Z,32.48
2023-12-21T12:00:55.810Z,30.43
2023-12-21T12:03:23.887Z,31.60
2023-12-21T12:05:54.528Z,30.11
2023-12-21T12:08:24.760Z,30.76
2023-12-21T12:10:52.578Z,31.10
2023-12-21T12:13:25.295Z,30.05
2023-12-21T12:15:53.843Z,30.27
2023-12-21T12:18:21.168Z,29.57
2023-12-21T12:20:51.657Z,29.88
2023-12-21T12:23:19.102Z,30.01
2023-12-21T12:25:49.768Z,28.74
2023-12-21T12:28:18.943Z,31.00
2023-12-21T12:30:46.566Z,30.07
2023-12-21T12:33:13.911Z,28.55
2023-12-21T12:35:41.779Z,28.71
2023-12-21T12:38:09.021Z,28.28
2023-12-21T12:40:36.343Z,27.09
2023-12-21T12:43:05.341Z,27.12
2023-12-21T12:45:34.959Z,26.02
2023-12-21T12:48:02.304Z,25.90
2023-12-21T12:50:29.163Z,24.62
2023-12-21T12:52:56.142Z,24.12
2023-12-21T12:55:24.707Z,23.16
2023-12-21T12:57:56.800Z,23.11
2023-12-21T13:00:25.005Z,23.81
2023-12-21T13:02:51.802Z,22.81
2023-12-21T13:05:20.080Z,22.99
2023-12-21T13:07:47.540Z,24.03
2023-12-21T13:10:15.525Z,24.66
2023-12-21T13:12:43.981Z,25.63
2023-12-21T13:15:14.313Z,27.33
2023-12-21T13:17:41.802Z,27.63
2023-12-21T13:20:11.204Z,29.38
2023-12-21T13:22:38.503Z,30.16
2023-12-21T13:25:07.464Z,31.19
2023-12-21T13:27:35.345Z,31.54
2023-12-21T13:30:02.749Z,32.82
2023-12-21T13:32:29.935Z,32.85
2023-12-21T13:34:57.214Z,33.97
2023-12-21T13:37:24.137Z,34.05
2023-12-21T13:39:51.139Z,33.79
2023-12-21T13:42:18.050Z,34.77
2023-12-21T13:44:45.020Z,34.68
2023-12-21T13:47:11.946Z,34.45
2023-12-21T13:49:39.203Z,34.05
2023-12-21T13:52:06.623Z,35.46
2023-12-21T13:54:33.763Z,35.95
2023-12-21T13:57:10.742Z,35.02
2023-12-21T13:59:42.622Z,34.88
2023-12-21T14:02:10.192Z,35.65
2023-12-21T14:04:38.774Z,36.63
2023-12-21T14:07:06.467Z,36.04
2023-12-21T14:09:34.444Z,36.52
2023-12-21T14:14:33.547Z,35.84
2023-12-21T14:17:00.548Z,36.22
2023-12-21T14:19:27.506Z,37.01
2023-12-21T14:21:54.597Z,37.56
2023-12-21T14:24:21.848Z,37.54
2023-12-21T14:26:50.567Z,37.65
2023-12-21T14:29:17.467Z,39.11
2023-12-21T14:31:45.574Z,38.82
2023-12-21T14:34:13.557Z,40.60
2023-12-21T14:36:40.612Z,39.13
2023-12-21T14:39:07.736Z,40.84
2023-12-21T14:41:38.030Z,42.72
2023-12-21T14:44:06.067Z,43.44
2023-12-21T14:46:33.137Z,43.17
2023-12-21T14:49:00.090Z,42.68
2023-12-21T14:51:26.946Z,42.99
2023-12-21T14:53:53.939Z,44.18
2023-12-21T14:56:20.870Z,44.41
2023-12-21T14:58:47.749Z,44.31
2023-12-21T15:01:14.760Z,45.82
2023-12-21T15:03:41.886Z,46.74
2023-12-21T15:06:08.898Z,46.76
2023-12-21T15:08:35.738Z,47.69
2023-12-21T15:11:02.992Z,46.61
2023-12-21T15:13:30.417Z,48.93
2023-12-21T15:15:57.625Z,49.00
2023-12-21T15:18:24.720Z,49.96
2023-12-21T15:20:51.657Z,49.83
2023-12-21T15:23:18.508Z,51.12
2023-12-21T15:25:45.573Z,51.55
2023-12-21T15:28:13.404Z,52.49
2023-12-21T15:30:40.499Z,52.15
2023-12-21T15:33:07.379Z,51.89
2023-12-21T15:35:34.533Z,50.51
2023-12-21T15:38:04.468Z,50.60
2023-12-21T15:40:31.420Z,52.20
2023-12-21T15:42:58.442Z,53.84
2023-12-21T15:45:25.440Z,54.17
2023-12-21T15:47:52.414Z,54.18
2023-12-21T15:50:19.464Z,54.76
2023-12-21T15:52:46.638Z,55.11
2023-12-21T15:55:14.914Z,55.72
2023-12-21T15:57:41.912Z,56.56
2023-12-21T16:00:11.495Z,56.93
2023-12-21T16:02:38.567Z,57.32
2023-12-21T16:05:06.117Z,57.22
2023-12-21T16:07:33.072Z,56.27
2023-12-21T16:09:59.919Z,55.59
2023-12-21T16:12:27.358Z,57.01
2023-12-21T16:14:54.166Z,57.81
2023-12-21T16:17:23.496Z,58.24
2023-12-21T16:19:51.450Z,58.97
2023-12-21T16:22:20.758Z,59.16
2023-12-21T16:24:47.933Z,58.76
2023-12-21T16:27:14.877Z,58.72
2023-12-21T16:29:42.412Z,59.16
2023-12-21T16:32:10.511Z,59.33
2023-12-21T16:34:40.273Z,59.58
2023-12-21T16:37:07.770Z,60.13
2023-12-21T16:39:34.991Z,60.44
2023-12-21T16:42:02.025Z,60.54
2023-12-21T16:44:29.027Z,59.99
2023-12-21T16:46:56.036Z,60.14
2023-12-21T16:49:23.686Z,59.69
2023-12-21T16:51:50.744Z,60.00
2023-12-21T16:54:17.629Z,60.15
2023-12-21T16:56:44.892Z,60.49
2023-12-21T16:59:12.047Z,60.68
2023-12-21T17:01:38.978Z,60.80
2023-12-21T17:04:06.023Z,61.39
2023-12-21T17:06:32.944Z,61.75
2023-12-21T17:09:00.334Z,62.01
2023-12-21T17:11:27.162Z,62.11
2023-12-21T17:13:54.130Z,62.63
2023-12-21T17:16:24.440Z,62.28
2023-12-21T17:18:52.138Z,62.32
2023-12-21T17:21:19.131Z,62.36
2023-12-21T17:23:47.123Z,61.50
2023-12-21T17:26:13.918Z,62.14
2023-12-21T17:28:41.829Z,62.00
2023-12-21T17:31:08.919Z,62.49
2023-12-21T17:33:38.632Z,62.58
2023-12-21T17:36:05.679Z,62.61
2023-12-21T17:38:32.515Z,61.47
2023-12-21T17:40:59.433Z,61.56
2023-12-21T17:43:27.017Z,61.29
2023-12-21T17:45:53.898Z,61.09
2023-12-21T17:48:20.827Z,60.59
2023-12-21T17:50:47.786Z,60.71
2023-12-21T17:53:14.635Z,60.74
2023-12-21T17:55:43.398Z,60.62
2023-12-21T17:58:10.321Z,60.26
2023-12-21T18:00:37.239Z,60.24
2023-12-21T18:03:05.131Z,61.02
2023-12-21T18:05:32.047Z,62.32
2023-12-21T18:07:59.433Z,62.73
2023-12-21T18:10:26.418Z,61.92
2023-12-21T18:12:53.356Z,62.32
2023-12-21T18:15:20.364Z,62.50
2023-12-21T18:17:47.821Z,62.67
2023-12-21T18:20:18.361Z,62.63
2023-12-21T18:22:45.528Z,62.36
2023-12-21T18:25:12.527Z,63.11
2023-12-21T18:27:39.861Z,62.79
2023-12-21T18:30:07.614Z,63.36
2023-12-21T18:32:34.746Z,63.57
2023-12-21T18:35:01.821Z,63.69
2023-12-21T18:37:28.864Z,63.38
2023-12-21T18:39:56.322Z,63.90
2023-12-21T18:42:23.256Z,63.67
2023-12-21T18:44:50.172Z,63.69
2023-12-21T18:47:18.454Z,63.44
2023-12-21T18:49:46.307Z,61.71
2023-12-21T18:52:13.431Z,62.67
2023-12-21T18:54:41.539Z,63.41
2023-12-21T18:57:08.623Z,63.45
2023-12-21T18:59:35.775Z,63.54
2023-12-21T19:02:02.756Z,63.64
2023-12-21T19:04:29.696Z,63.96
2023-12-21T19:06:56.760Z,63.49
2023-12-21T19:09:23.757Z,63.41
2023-12-21T19:11:50.691Z,63.75
2023-12-21T19:14:18.473Z,63.94
2023-12-21T19:16:45.717Z,65.05
2023-12-21T19:19:12.916Z,66.07
2023-12-21T19:21:46.056Z,66.10
2023-12-21T19:24:13.067Z,66.36
2023-12-21T19:26:39.889Z,66.52
2023-12-21T19:29:07.104Z,66.36
2023-12-21T19:31:34.136Z,66.14
2023-12-21T19:34:01.144Z,66.41
2023-12-21T19:36:28.197Z,66.71
2023-12-21T19:38:55.290Z,67.65
2023-12-21T19:41:22.392Z,67.67
2023-12-21T19:43:49.410Z,67.28
2023-12-21T19:46:18.555Z,67.19
2023-12-21T19:48:45.408Z,67.12
2023-12-21T19:51:12.563Z,67.48
2023-12-21T19:53:40.423Z,67.62
2023-12-21T19:56:08.808Z,67.82
2023-12-21T19:58:36.216Z,67.96
2023-12-21T20:01:03.458Z,68.08
2023-12-21T20:03:30.437Z,67.84
2023-12-21T20:05:57.748Z,67.94
2023-12-21T20:08:24.736Z,67.85
2023-12-21T20:10:51.697Z,67.79
2023-12-21T20:13:18.944Z,67.61
2023-12-21T20:15:45.989Z,68.02
2023-12-21T20:18:13.011Z,67.75
2023-12-21T20:20:39.923Z,68.34
2023-12-21T20:23:09.522Z,68.23
2023-12-21T20:25:37.095Z,68.36
2023-12-21T20:28:08.926Z,68.19
2023-12-21T20:30:36.969Z,68.20
2023-12-21T20:33:05.262Z,68.47
2023-12-21T20:35:33.312Z,68.76
2023-12-21T20:38:00.431Z,68.76
2023-12-21T20:40:27.463Z,68.89
2023-12-21T20:42:55.284Z,68.75
2023-12-21T20:45:22.138Z,68.97
2023-12-21T20:47:49.298Z,69.18
2023-12-21T20:50:18.761Z,69.13
2023-12-21T20:52:46.118Z,69.28
2023-12-21T20:55:15.513Z,69.40
2023-12-21T20:57:42.648Z,69.57
2023-12-21T21:00:10.616Z,69.74
2023-12-21T21:02:37.485Z,69.67
2023-12-21T21:05:05.512Z,69.31
2023-12-21T21:07:33.009Z,69.57
2023-12-21T21:10:00.235Z,69.70
2023-12-21T21:12:27.194Z,69.76
2023-12-21T21:14:54.399Z,69.75
2023-12-21T21:17:25.116Z,70.11
2023-12-21T21:19:52.820Z,70.45
2023-12-21T21:22:20.166Z,70.39
2023-12-21T21:24:47.764Z,70.48
2023-12-21T21:27:14.611Z,71.09
2023-12-21T21:29:41.457Z,71.66
2023-12-21T21:32:08.553Z,72.09
2023-12-21T21:34:36.975Z,72.17
2023-12-21T21:37:04.640Z,71.97
2023-12-21T21:39:32.270Z,72.09
2023-12-21T21:41:59.950Z,72.27
2023-12-21T21:44:31.223Z,72.28
2023-12-21T21:46:58.119Z,71.87
2023-12-21T21:49:25.261Z,71.86
2023-12-21T21:51:52.256Z,71.95
2023-12-21T21:54:19.111Z,72.07
2023-12-21T21:56:45.923Z,72.18
2023-12-21T21:59:14.050Z,72.41
2023-12-21T22:01:44.752Z,72.56
2023-12-21T22:04:11.692Z,72.76
2023-12-21T22:06:38.712Z,72.92
2023-12-21T22:09:05.973Z,73.11
2023-12-21T22:11:33.694Z,73.38
2023-12-21T22:14:01.226Z,73.40
2023-12-21T22:16:28.273Z,73.25
2023-12-21T22:18:55.895Z,72.75
2023-12-21T22:21:23.015Z,72.65
2023-12-21T22:23:49.856Z,72.38
2023-12-21T22:26:20.809Z,72.24
2023-12-21T22:28:48.181Z,71.96
2023-12-21T22:31:15.216Z,71.87
2023-12-21T22:33:42.152Z,72.11
2023-12-21T22:36:09.963Z,72.40
2023-12-21T22:38:37.181Z,72.82
2023-12-21T22:41:05.275Z,72.37
2023-12-21T22:43:41.679Z,72.50
2023-12-21T22:46:09.873Z,72.49
2023-12-21T22:48:37.101Z,72.79
2023-12-21T22:51:04.211Z,73.17
2023-12-21T22:53:32.259Z,73.18
2023-12-21T22:55:59.096Z,73.49
2023-12-21T22:58:26.373Z,74.19
2023-12-21T23:00:53.266Z,74.62
2023-12-21T23:03:20.203Z,75.49
2023-12-21T23:05:47.269Z,75.58
2023-12-21T23:08:14.083Z,75.35
2023-12-21T23:10:44.496Z,75.20
2023-12-21T23:13:18.661Z,75.46
2023-12-21T23:15:46.247Z,75.32
2023-12-21T23:18:13.530Z,75.14
2023-12-21T23:20:40.564Z,74.93
2023-12-21T23:23:07.729Z,74.84
2023-12-21T23:25:34.883Z,74.89
2023-12-21T23:28:02.091Z,74.81
2023-12-21T23:30:29.030Z,74.88
2023-12-21T23:32:55.973Z,75.06
2023-12-21T23:35:23.842Z,75.51
2023-12-21T23:37:51.589Z,75.52
2023-12-21T23:40:19.145Z,75.15
2023-12-21T23:42:46.587Z,75.02
2023-12-21T23:45:13.815Z,75.47
2023-12-21T23:47:41.075Z,75.91
2023-12-21T23:50:09.102Z,75.94
2023-12-21T23:52:36.508Z,75.73
2023-12-21T23:55:03.505Z,75.36
2023-12-21T23:57:30.821Z,75.43
2023-12-21T23:59:57.758Z,75.83
